createdAt,value
2023-05-18T00:02:09.091Z,8.5
2023-05-18T00:05:00.569Z,12.3
2023-05-18T00:07:49.297Z,10.7
2023-05-18T00:10:37.846Z,9.8
2023-05-18T00:13:25.503Z,8.2
2023-05-18T00:16:12.951Z,9.4
2023-05-18T00:19:00.497Z,7.3
2023-05-18T00:21:48.758Z,7.8
2023-05-18T00:24:37.350Z,7.1
2023-05-18T00:27:24.580Z,11.3
2023-05-18T00:30:11.970Z,12.5
2023-05-18T00:32:59.599Z,9.4
2023-05-18T00:35:47.045Z,5.7
2023-05-18T00:38:34.331Z,8.5
2023-05-18T00:41:21.858Z,10.4
2023-05-18T00:44:10.752Z,8
2023-05-18T00:46:58.321Z,5.4
2023-05-18T00:49:46.606Z,9.1
2023-05-18T00:52:34.334Z,6.7
2023-05-18T00:55:22.453Z,8.4
2023-05-18T00:58:11.070Z,7.2
2023-05-18T01:00:59.247Z,7.8
2023-05-18T01:03:47.448Z,8.6
2023-05-18T01:06:40.950Z,7.4
2023-05-18T01:09:28.372Z,9.1
2023-05-18T01:12:15.842Z,5.4
2023-05-18T01:15:09.980Z,8
2023-05-18T01:18:01.808Z,5.9
2023-05-18T01:20:59.994Z,8.4
2023-05-18T01:24:04.043Z,8.5
2023-05-18T01:27:10.323Z,7.1
2023-05-18T01:30:01.915Z,6.7
2023-05-18T01:32:53.592Z,9.4
2023-05-18T01:35:41.028Z,9.1
2023-05-18T01:38:32.624Z,5.1
2023-05-18T01:41:21.101Z,4.6
2023-05-18T01:44:11.146Z,7.3
2023-05-18T01:47:07.576Z,11.5
2023-05-18T01:49:59.036Z,6.6
2023-05-18T01:52:51.504Z,7.6
2023-05-18T01:55:45.348Z,6.4
2023-05-18T01:58:35.389Z,8.9
2023-05-18T02:01:24.299Z,7.9
2023-05-18T02:04:11.776Z,6.1
2023-05-18T02:06:59.048Z,5.6
2023-05-18T02:09:46.338Z,6.5
2023-05-18T02:12:34.532Z,7.6
2023-05-18T02:15:21.816Z,7.6
2023-05-18T02:18:09.414Z,7.4
2023-05-18T02:20:56.758Z,9.1
2023-05-18T02:23:44.408Z,6
2023-05-18T02:26:31.750Z,5.9
2023-05-18T02:29:19.093Z,9.4
2023-05-18T02:32:06.313Z,5.1
2023-05-18T02:34:54.299Z,5.4
2023-05-18T02:37:41.511Z,6.1
2023-05-18T02:40:29.022Z,5.2
2023-05-18T02:43:16.440Z,5.3
2023-05-18T02:46:04.151Z,3.7
2023-05-18T02:48:51.497Z,8.6
2023-05-18T02:51:38.766Z,16.7
2023-05-18T02:54:26.116Z,7.3
2023-05-18T02:57:13.675Z,7.5
2023-05-18T03:00:01.383Z,8.4
2023-05-18T03:02:56.251Z,9.7
2023-05-18T03:05:44.890Z,6.1
2023-05-18T03:08:32.288Z,5.6
2023-05-18T03:11:21.610Z,7.4
2023-05-18T03:14:10.673Z,7.5
2023-05-18T03:16:58.272Z,5.5
2023-05-18T03:19:45.939Z,6.1
2023-05-18T03:22:33.120Z,4
2023-05-18T03:25:20.600Z,9.1
2023-05-18T03:28:10.118Z,7.8
2023-05-18T03:30:57.469Z,8.1
2023-05-18T03:33:44.933Z,5.7
2023-05-18T03:36:32.274Z,6.3
2023-05-18T03:39:20.871Z,7.7
2023-05-18T03:42:08.395Z,7
2023-05-18T03:44:56.108Z,7.2
2023-05-18T03:47:43.613Z,6.9
2023-05-18T03:50:31.408Z,6.5
2023-05-18T03:53:18.785Z,8.7
2023-05-18T03:56:06.153Z,8.8
2023-05-18T03:58:53.652Z,6.5
2023-05-18T04:01:42.963Z,6.3
2023-05-18T04:04:30.612Z,8
2023-05-18T04:07:18.174Z,5.4
2023-05-18T04:10:09.095Z,7.6
2023-05-18T04:12:57.196Z,7.5
2023-05-18T04:15:44.585Z,5.1
2023-05-18T04:18:33.262Z,6.5
2023-05-18T04:21:20.776Z,7.1
2023-05-18T04:24:08.043Z,5.6
2023-05-18T04:26:58.930Z,9.6
2023-05-18T04:29:47.250Z,7.8
2023-05-18T04:32:34.712Z,8
2023-05-18T04:35:22.271Z,9.4
2023-05-18T04:38:10.511Z,9.5
2023-05-18T04:40:57.894Z,13.5
2023-05-18T04:43:45.953Z,11
2023-05-18T04:46:34.828Z,10.1
2023-05-18T04:49:24.366Z,11.9
2023-05-18T04:52:13.122Z,7.6
2023-05-18T04:55:00.620Z,11.3
2023-05-18T04:57:48.612Z,8.9
2023-05-18T05:00:38.519Z,10.9
2023-05-18T05:03:26.067Z,10.2
2023-05-18T05:06:13.464Z,10
2023-05-18T05:09:01.410Z,7.7
2023-05-18T05:11:50.111Z,11.8
2023-05-18T05:14:37.571Z,6.2
2023-05-18T05:17:25.157Z,8.7
2023-05-18T05:20:12.437Z,9.8
2023-05-18T05:23:00.122Z,10.5
2023-05-18T05:25:47.591Z,8.7
2023-05-18T05:28:34.958Z,12.7
2023-05-18T05:31:22.291Z,8.5
2023-05-18T05:34:10.027Z,10.2
2023-05-18T05:36:58.010Z,9.5
2023-05-18T05:39:45.488Z,5
2023-05-18T05:42:32.851Z,9.5
2023-05-18T05:45:20.261Z,7.2
2023-05-18T05:48:09.181Z,8.1
2023-05-18T05:50:57.533Z,8.7
2023-05-18T05:53:45.104Z,5.7
2023-05-18T05:56:33.938Z,4.6
2023-05-18T05:59:21.219Z,12.1
2023-05-18T06:02:08.682Z,10.2
2023-05-18T06:04:56.766Z,8
2023-05-18T06:07:44.131Z,7.5
2023-05-18T06:10:31.642Z,7.8
2023-05-18T06:13:19.194Z,9.8
2023-05-18T06:16:06.955Z,8.1
2023-05-18T06:18:54.407Z,8.6
2023-05-18T06:21:41.927Z,7.3
2023-05-18T06:24:29.468Z,8.3
2023-05-18T06:27:16.906Z,5.8
2023-05-18T06:30:05.119Z,6.7
2023-05-18T06:32:55.669Z,7.2
2023-05-18T06:35:43.205Z,8.4
2023-05-18T06:38:30.756Z,2.7
2023-05-18T06:41:18.226Z,3.5
2023-05-18T06:44:07.769Z,5.3
2023-05-18T06:46:55.335Z,7.1
2023-05-18T06:49:42.589Z,4.2
2023-05-18T06:52:30.040Z,5.9
2023-05-18T06:55:17.410Z,3.8
2023-05-18T06:58:04.832Z,4.9
2023-05-18T07:00:52.598Z,3
2023-05-18T07:03:40.091Z,6.3
2023-05-18T07:06:27.516Z,5.4
2023-05-18T07:09:16.147Z,4.5
2023-05-18T07:12:03.436Z,4.8
2023-05-18T07:14:51.629Z,2.6
2023-05-18T07:17:39.003Z,2
2023-05-18T07:20:26.748Z,5
2023-05-18T07:26:18.820Z,5.4
2023-05-18T07:29:07.044Z,2.6
2023-05-18T07:31:54.631Z,4.1
2023-05-18T07:34:42.382Z,4.5
2023-05-18T07:37:31.264Z,5.7
2023-05-18T07:40:18.986Z,3.4
2023-05-18T07:43:06.800Z,2.9
2023-05-18T07:45:54.962Z,2.5
2023-05-18T07:48:42.418Z,10.2
2023-05-18T07:51:30.293Z,6
2023-05-18T07:54:19.053Z,3.1
2023-05-18T07:57:06.520Z,3.1
2023-05-18T07:59:53.923Z,1.4
2023-05-18T08:02:41.552Z,2.4
2023-05-18T08:05:30.467Z,3.8
2023-05-18T08:08:18.064Z,3.2
2023-05-18T08:11:06.351Z,3.3
2023-05-18T08:13:59.012Z,4.8
2023-05-18T08:16:46.597Z,2.6
2023-05-18T08:19:34.135Z,2.9
2023-05-18T08:22:22.487Z,2.6
2023-05-18T08:25:09.875Z,3.3
2023-05-18T08:27:57.521Z,5.5
2023-05-18T08:30:45.096Z,3.9
2023-05-18T08:33:33.153Z,5.5
2023-05-18T08:36:20.470Z,3.2
2023-05-18T08:39:07.832Z,3.1
2023-05-18T08:41:56.229Z,5.5
2023-05-18T08:44:49.398Z,3.3
2023-05-18T08:47:47.538Z,4.8
2023-05-18T08:50:36.016Z,6.1
2023-05-18T08:53:26.312Z,2.9
2023-05-18T08:56:15.806Z,3.2
2023-05-18T08:59:07.530Z,2.2
2023-05-18T09:01:56.596Z,2.6
2023-05-18T09:04:44.586Z,3.2
2023-05-18T09:07:33.392Z,2.8
2023-05-18T09:10:22.825Z,4.1
2023-05-18T09:13:11.142Z,2
2023-05-18T09:16:04.357Z,2.2
2023-05-18T09:18:52.717Z,4.5
2023-05-18T09:21:40.804Z,2.4
2023-05-18T09:24:32.164Z,2.3
2023-05-18T09:27:19.638Z,3.8
2023-05-18T09:30:08.472Z,3.8
2023-05-18T09:32:57.035Z,1.9
2023-05-18T09:35:44.608Z,2.5
2023-05-18T09:38:32.457Z,3.4
2023-05-18T09:41:22.884Z,3.1
2023-05-18T09:44:12.342Z,2.1
2023-05-18T09:47:01.395Z,2.6
2023-05-18T09:49:53.966Z,3.2
2023-05-18T09:52:42.552Z,2.8
2023-05-18T09:55:32.151Z,3.3
2023-05-18T09:58:29.323Z,2
2023-05-18T10:01:18.010Z,2.8
2023-05-18T10:04:05.619Z,3
2023-05-18T10:06:53.239Z,4.5
2023-05-18T10:09:42.216Z,1.6
2023-05-18T10:12:31.017Z,2.1
2023-05-18T10:15:19.143Z,2.6
2023-05-18T10:18:09.244Z,2.6
2023-05-18T10:20:59.274Z,5.6
2023-05-18T10:23:50.639Z,4.1
2023-05-18T10:26:39.392Z,1.9
2023-05-18T10:29:28.908Z,2.8
2023-05-18T10:32:17.662Z,2.2
2023-05-18T10:35:08.740Z,3
2023-05-18T10:37:56.621Z,3.7
2023-05-18T10:40:44.965Z,2.4
2023-05-18T10:43:34.453Z,4.2
2023-05-18T10:46:22.681Z,2.4
2023-05-18T10:49:11.303Z,2.5
2023-05-18T10:52:02.675Z,3.8
2023-05-18T10:54:54.048Z,3.1
2023-05-18T10:57:42.671Z,2
2023-05-18T11:00:35.856Z,3.2
2023-05-18T11:03:24.756Z,4.1
2023-05-18T11:06:13.461Z,2.1
2023-05-18T11:09:09.426Z,4.5
2023-05-18T11:12:09.123Z,3.3
2023-05-18T11:14:58.756Z,2.9
2023-05-18T11:17:46.420Z,1.7
2023-05-18T11:20:58.425Z,4.2
2023-05-18T11:23:46.240Z,3.7
2023-05-18T11:27:08.322Z,3.3
2023-05-18T11:30:14.729Z,3.7
2023-05-18T11:33:18.411Z,3.2
2023-05-18T11:36:15.245Z,3.4
2023-05-18T11:39:09.096Z,2.7
2023-05-18T11:42:08.055Z,3.8
2023-05-18T11:44:59.104Z,2.8
2023-05-18T11:47:52.690Z,4.1
2023-05-18T11:50:46.628Z,3.3
2023-05-18T11:53:34.814Z,3.9
2023-05-18T11:56:22.342Z,4
2023-05-18T11:59:10.865Z,1.8
2023-05-18T12:01:59.356Z,3
2023-05-18T12:04:48.819Z,5.1
2023-05-18T12:07:38.813Z,3.9
2023-05-18T12:10:28.479Z,3.2
2023-05-18T12:13:16.977Z,2.2
2023-05-18T12:16:05.253Z,4.4
2023-05-18T12:18:53.332Z,2.4
2023-05-18T12:21:42.150Z,1.8
2023-05-18T12:24:30.632Z,2.3
2023-05-18T12:27:18.061Z,3.2
2023-05-18T12:30:07.840Z,4.4
2023-05-18T12:32:56.975Z,3
2023-05-18T12:35:46.893Z,3.9
2023-05-18T12:38:34.417Z,4.4
2023-05-18T12:41:22.318Z,2.5
2023-05-18T12:44:11.265Z,2.2
2023-05-18T12:46:58.786Z,3.1
2023-05-18T12:49:47.006Z,3.2
2023-05-18T12:52:35.575Z,2.6
2023-05-18T12:55:25.533Z,2.6
2023-05-18T12:58:15.250Z,2.6
2023-05-18T13:01:05.515Z,1.6
2023-05-18T13:03:54.082Z,6.2
2023-05-18T13:06:43.042Z,3.7
2023-05-18T13:09:30.551Z,2.6
2023-05-18T13:12:18.256Z,3.4
2023-05-18T13:15:22.083Z,3.1
2023-05-18T13:18:10.254Z,3.6
2023-05-18T13:20:59.715Z,11.2
2023-05-18T13:23:47.360Z,9.1
2023-05-18T13:26:39.094Z,5.2
2023-05-18T13:29:26.676Z,5.2
2023-05-18T13:32:16.849Z,2.4
2023-05-18T13:35:04.454Z,2.4
2023-05-18T13:37:52.327Z,5.4
2023-05-18T13:40:40.428Z,3.1
2023-05-18T13:43:28.151Z,6.3
2023-05-18T13:46:15.921Z,4.2
2023-05-18T13:49:04.682Z,2.2
2023-05-18T13:51:52.147Z,6.1
2023-05-18T13:54:40.186Z,2.9
2023-05-18T13:57:27.736Z,1.8
2023-05-18T14:00:16.678Z,5.3
2023-05-18T14:03:05.591Z,2.7
2023-05-18T14:05:54.653Z,2.7
2023-05-18T14:08:42.782Z,2.8
2023-05-18T14:11:30.360Z,2.9
2023-05-18T14:14:19.911Z,4.3
2023-05-18T14:17:09.248Z,2.7
2023-05-18T14:19:58.778Z,2.1
2023-05-18T14:22:46.585Z,3.4
2023-05-18T14:25:34.219Z,2.6
2023-05-18T14:28:21.888Z,2.3
2023-05-18T14:31:09.545Z,7.4
2023-05-18T14:33:57.064Z,4.6
2023-05-18T14:36:44.774Z,2.4
2023-05-18T14:39:32.348Z,3.5
2023-05-18T14:42:20.553Z,4.6
2023-05-18T14:45:08.104Z,3.9
2023-05-18T14:47:56.224Z,4.9
2023-05-18T14:50:43.902Z,3.1
2023-05-18T14:53:31.442Z,4.4
2023-05-18T14:56:20.006Z,3.6
2023-05-18T14:59:07.687Z,2.2
2023-05-18T15:01:55.225Z,6.1
2023-05-18T15:04:43.359Z,2.4
2023-05-18T15:07:30.954Z,4.5
2023-05-18T15:10:19.551Z,2.4
2023-05-18T15:13:08.044Z,2
2023-05-18T15:15:55.840Z,2.3
2023-05-18T15:18:43.517Z,3.3
2023-05-18T15:21:31.329Z,3.7
2023-05-18T15:24:18.725Z,5
2023-05-18T15:27:06.328Z,1.9
2023-05-18T15:29:55.128Z,5
2023-05-18T15:32:42.731Z,3.6
2023-05-18T15:35:30.472Z,3.8
2023-05-18T15:38:19.501Z,5.5
2023-05-18T15:41:06.899Z,4
2023-05-18T15:43:54.446Z,3
2023-05-18T15:46:41.865Z,4.1
2023-05-18T15:49:29.457Z,2.4
2023-05-18T15:52:16.962Z,3.5
2023-05-18T15:55:04.708Z,4.1
2023-05-18T15:57:53.154Z,4
2023-05-18T16:00:40.861Z,6.1
2023-05-18T16:03:28.872Z,3.8
2023-05-18T16:06:16.393Z,3.3
2023-05-18T16:09:04.265Z,2.6
2023-05-18T16:11:52.145Z,2.7
2023-05-18T16:14:39.687Z,2.8
2023-05-18T16:17:27.319Z,4
2023-05-18T16:20:14.921Z,2.7
2023-05-18T16:23:03.406Z,5.2
2023-05-18T16:25:51.670Z,2.9
2023-05-18T16:28:39.263Z,3.4
2023-05-18T16:31:26.805Z,3.4
2023-05-18T16:34:14.374Z,3.7
2023-05-18T16:37:01.922Z,2.6
2023-05-18T16:39:50.879Z,3.8
2023-05-18T16:42:38.289Z,3.6
2023-05-18T16:45:27.216Z,5.8
2023-05-18T16:48:14.685Z,2.1
2023-05-18T16:51:02.339Z,3.3
2023-05-18T16:53:51.404Z,2.8
2023-05-18T16:56:38.843Z,4.5
2023-05-18T16:59:26.416Z,3.5
2023-05-18T17:02:14.435Z,3
2023-05-18T17:05:03.949Z,2.8
2023-05-18T17:07:53.179Z,3.3
2023-05-18T17:10:41.084Z,4.3
2023-05-18T17:13:28.892Z,4.3
2023-05-18T17:16:16.558Z,5.3
2023-05-18T17:19:06.245Z,4.1
2023-05-18T17:21:54.638Z,3.5
2023-05-18T17:24:42.106Z,4.4
2023-05-18T17:27:29.577Z,2.6
2023-05-18T17:30:17.282Z,2.9
2023-05-18T17:33:05.132Z,6
2023-05-18T17:35:52.661Z,2.4
2023-05-18T17:38:40.599Z,4.2
2023-05-18T17:41:28.104Z,4.1
2023-05-18T17:44:16.931Z,7.3
2023-05-18T17:47:04.725Z,4.2
2023-05-18T17:49:52.457Z,6
2023-05-18T17:52:41.804Z,6.3
2023-05-18T17:55:29.423Z,4.8
2023-05-18T17:58:17.171Z,5
2023-05-18T18:01:04.786Z,6.5
2023-05-18T18:03:53.176Z,5
2023-05-18T18:06:41.072Z,3.7
2023-05-18T18:09:30.082Z,5.7
2023-05-18T18:12:18.074Z,7
2023-05-18T18:15:05.847Z,3.9
2023-05-18T18:17:54.730Z,7.1
2023-05-18T18:20:42.333Z,6.3
2023-05-18T18:23:33.048Z,5.5
2023-05-18T18:26:21.815Z,4
2023-05-18T18:29:09.228Z,5.6
2023-05-18T18:31:56.827Z,4.7
2023-05-18T18:34:44.524Z,4.8
2023-05-18T18:37:32.035Z,7.3
2023-05-18T18:40:19.856Z,5.6
2023-05-18T18:43:07.664Z,6.2
2023-05-18T18:45:55.610Z,6.8
2023-05-18T18:48:43.552Z,7.1
2023-05-18T18:51:31.665Z,7.1
2023-05-18T18:54:19.315Z,11.3
2023-05-18T18:57:08.113Z,6.9
2023-05-18T18:59:56.807Z,8.6
2023-05-18T19:02:45.416Z,7
2023-05-18T19:05:34.321Z,8.1
2023-05-18T19:08:22.654Z,8.8
2023-05-18T19:11:10.554Z,7.9
2023-05-18T19:13:58.741Z,7.5
2023-05-18T19:16:47.229Z,11.1
2023-05-18T19:19:35.058Z,10.4
2023-05-18T19:22:23.259Z,9.7
2023-05-18T19:25:10.817Z,8.1
2023-05-18T19:27:58.357Z,7.5
2023-05-18T19:30:45.970Z,9.2
2023-05-18T19:33:34.301Z,8.1
2023-05-18T19:36:21.840Z,8.3
2023-05-18T19:39:09.440Z,9.5
2023-05-18T19:41:59.839Z,12.9
2023-05-18T19:44:47.754Z,12
2023-05-18T19:47:35.184Z,10.3
2023-05-18T19:50:22.790Z,9.5
2023-05-18T19:53:10.588Z,10.8
2023-05-18T19:55:58.187Z,12.9
2023-05-18T19:58:46.127Z,13.7
2023-05-18T20:01:34.285Z,11.4
2023-05-18T20:04:22.296Z,15.9
2023-05-18T20:07:12.716Z,18.1
2023-05-18T20:10:01.651Z,12.8
2023-05-18T20:12:52.182Z,13.6
2023-05-18T20:15:39.946Z,13.1
2023-05-18T20:18:28.290Z,9.8
2023-05-18T20:21:16.323Z,11.4
2023-05-18T20:24:05.221Z,15.1
2023-05-18T20:26:52.797Z,13.8
2023-05-18T20:29:40.349Z,15.4
2023-05-18T20:32:28.130Z,12.9
2023-05-18T20:35:17.142Z,11.6
2023-05-18T20:38:05.319Z,11.1
2023-05-18T20:40:54.206Z,11.5
2023-05-18T20:43:42.527Z,12.3
2023-05-18T20:46:35.079Z,13.7
2023-05-18T20:49:22.751Z,13
2023-05-18T20:52:10.139Z,12
2023-05-18T20:54:57.624Z,9.2
2023-05-18T20:57:45.023Z,8.2
2023-05-18T21:00:33.916Z,9.9
2023-05-18T21:03:22.326Z,7.4
2023-05-18T21:06:10.000Z,7.1
2023-05-18T21:08:57.657Z,7.8
2023-05-18T21:11:45.710Z,7
2023-05-18T21:14:33.723Z,7.6
2023-05-18T21:17:21.853Z,11.5
2023-05-18T21:20:09.337Z,9.6
2023-05-18T21:22:57.270Z,9.3
2023-05-18T21:25:44.939Z,9.2
2023-05-18T21:28:32.314Z,6
2023-05-18T21:31:19.918Z,7.7
2023-05-18T21:34:07.394Z,7.2
2023-05-18T21:36:54.828Z,8.4
2023-05-18T21:39:42.477Z,8.8
2023-05-18T21:42:30.559Z,8.6
2023-05-18T21:45:18.066Z,6.9
2023-05-18T21:48:07.219Z,7.1
2023-05-18T21:50:54.945Z,6.6
2023-05-18T21:53:42.315Z,7.5
2023-05-18T21:56:29.794Z,5.7
2023-05-18T21:59:19.159Z,6.9
2023-05-18T22:02:06.621Z,6.7
2023-05-18T22:04:54.095Z,8.1
2023-05-18T22:07:41.882Z,6
2023-05-18T22:10:29.665Z,6.8
2023-05-18T22:13:17.295Z,11.2
2023-05-18T22:16:04.956Z,6.5
2023-05-18T22:18:53.140Z,8.4
2023-05-18T22:21:40.544Z,6.6
2023-05-18T22:24:27.827Z,5.1
2023-05-18T22:27:15.467Z,5.9
2023-05-18T22:30:03.638Z,4.7
2023-05-18T22:32:53.886Z,4.8
2023-05-18T22:35:42.545Z,4.7
2023-05-18T22:38:30.468Z,5.7
2023-05-18T22:41:17.856Z,4.9
2023-05-18T22:44:06.520Z,7
2023-05-18T22:46:53.966Z,4.5
2023-05-18T22:49:41.763Z,5.7
2023-05-18T22:52:30.464Z,5.5
2023-05-18T22:55:19.337Z,4.3
2023-05-18T22:58:06.715Z,4.6
2023-05-18T23:00:54.104Z,4.4
2023-05-18T23:03:41.872Z,5.7
2023-05-18T23:06:29.251Z,3.6
2023-05-18T23:09:17.449Z,5.7
2023-05-18T23:12:05.160Z,5.4
2023-05-18T23:14:54.914Z,5.5
2023-05-18T23:17:42.949Z,7.2
2023-05-18T23:20:31.045Z,5.3
2023-05-18T23:23:19.067Z,5
2023-05-18T23:26:07.630Z,5
2023-05-18T23:28:55.687Z,4.7
2023-05-18T23:31:43.038Z,4.1
2023-05-18T23:34:30.587Z,3.4
2023-05-18T23:37:18.747Z,4.4
2023-05-18T23:40:08.063Z,6.5
2023-05-18T23:43:10.869Z,5
2023-05-18T23:45:58.854Z,4.7
2023-05-18T23:48:47.011Z,4.3
2023-05-18T23:51:36.780Z,3
2023-05-18T23:54:25.395Z,3.3
2023-05-18T23:57:13.825Z,5.5
